createdAt,value
2022-12-24T00:00:15.594Z,14.23
2022-12-24T00:02:42.342Z,14.65
2022-12-24T00:05:15.542Z,14.55
2022-12-24T00:07:42.221Z,14.77
2022-12-24T00:10:16.581Z,15.20
2022-12-24T00:12:49.623Z,15.38
2022-12-24T00:15:22.638Z,16.80
2022-12-24T00:17:49.218Z,15.02
2022-12-24T00:20:16.182Z,15.20
2022-12-24T00:22:49.575Z,14.32
2022-12-24T00:25:16.212Z,13.27
2022-12-24T00:27:49.631Z,13.02
2022-12-24T00:30:22.587Z,12.35
2022-12-24T00:33:02.547Z,12.55
2022-12-24T00:35:36.587Z,13.48
2022-12-24T00:38:03.958Z,11.95
2022-12-24T00:40:37.814Z,12.50
2022-12-24T00:43:04.398Z,12.82
2022-12-24T00:45:31.022Z,12.20
2022-12-24T00:48:04.680Z,12.15
2022-12-24T00:50:31.283Z,12.50
2022-12-24T00:52:58.180Z,12.35
2022-12-24T00:55:31.572Z,12.50
2022-12-24T00:57:58.219Z,12.80
2022-12-24T01:00:31.630Z,12.85
2022-12-24T01:03:04.738Z,13.07
2022-12-24T01:05:37.555Z,12.00
2022-12-24T01:08:04.344Z,13.02
2022-12-24T01:10:37.622Z,13.85
2022-12-24T01:13:04.477Z,13.43
2022-12-24T01:15:37.591Z,12.45
2022-12-24T01:18:04.239Z,12.18
2022-12-24T01:20:33.024Z,12.82
2022-12-24T01:23:06.558Z,12.82
2022-12-24T01:25:33.239Z,13.50
2022-12-24T01:28:13.635Z,13.07
2022-12-24T01:31:01.722Z,13.48
2022-12-24T01:33:43.671Z,13.70
2022-12-24T01:36:11.475Z,13.18
2022-12-24T01:38:45.602Z,15.02
2022-12-24T01:41:45.619Z,15.73
2022-12-24T01:44:35.647Z,13.88
2022-12-24T01:47:30.672Z,14.82
2022-12-24T01:50:01.464Z,15.43
2022-12-24T01:52:41.610Z,15.25
2022-12-24T01:58:02.599Z,13.85
2022-12-24T02:00:35.581Z,15.88
2022-12-24T02:03:09.621Z,14.73
2022-12-24T02:05:46.299Z,14.70
2022-12-24T02:08:20.618Z,14.45
2022-12-24T02:10:48.574Z,15.05
2022-12-24T02:13:19.029Z,15.88
2022-12-24T02:16:14.630Z,15.60
2022-12-24T02:18:55.673Z,14.90
2022-12-24T02:21:54.635Z,16.45
2022-12-24T02:24:47.335Z,15.48
2022-12-24T02:27:31.653Z,15.65
2022-12-24T02:30:12.607Z,17.83
2022-12-24T02:32:52.555Z,16.77
2022-12-24T02:35:49.679Z,17.58
2022-12-24T02:38:35.629Z,18.00
2022-12-24T02:41:16.290Z,19.48
2022-12-24T02:43:52.635Z,18.80
2022-12-24T02:46:30.708Z,20.40
2022-12-24T02:49:00.613Z,18.88
2022-12-24T02:51:27.229Z,19.48
2022-12-24T02:54:00.625Z,20.52
2022-12-24T02:56:51.612Z,19.58
2022-12-24T02:59:47.450Z,20.15
2022-12-24T03:02:49.646Z,20.77
2022-12-24T03:05:44.431Z,20.55
2022-12-24T03:08:31.603Z,20.60
2022-12-24T03:11:08.624Z,19.23
2022-12-24T03:13:42.628Z,21.33
2022-12-24T03:16:14.335Z,21.45
2022-12-24T03:18:52.610Z,22.13
2022-12-24T03:21:30.604Z,21.77
2022-12-24T03:24:04.600Z,22.00
2022-12-24T03:26:32.961Z,21.67
2022-12-24T03:29:00.104Z,21.60
2022-12-24T03:31:58.747Z,22.02
2022-12-24T03:34:32.190Z,22.05
2022-12-24T03:37:05.633Z,20.85
2022-12-24T03:39:32.376Z,19.00
2022-12-24T03:42:05.607Z,22.05
2022-12-24T03:44:38.646Z,19.80
2022-12-24T03:47:05.262Z,22.27
2022-12-24T03:49:31.872Z,22.20
2022-12-24T03:52:04.590Z,23.70
2022-12-24T03:54:31.317Z,21.50
2022-12-24T03:57:04.627Z,21.45
2022-12-24T03:59:37.642Z,20.33
2022-12-24T04:02:04.457Z,20.45
2022-12-24T04:04:39.552Z,19.05
2022-12-24T04:07:06.948Z,20.65
2022-12-24T04:09:40.661Z,17.92
2022-12-24T04:12:14.611Z,18.20
2022-12-24T04:14:41.214Z,18.73
2022-12-24T04:17:14.636Z,19.45
2022-12-24T04:19:41.236Z,17.60
2022-12-24T04:22:07.951Z,18.30
2022-12-24T04:24:41.637Z,17.58
2022-12-24T04:27:08.274Z,18.08
2022-12-24T04:29:34.910Z,17.38
2022-12-24T04:32:08.700Z,16.23
2022-12-24T04:34:41.581Z,16.33
2022-12-24T04:37:15.545Z,16.90
2022-12-24T04:39:48.632Z,16.95
2022-12-24T04:42:15.309Z,15.75
2022-12-24T04:44:41.916Z,15.77
2022-12-24T04:47:14.547Z,15.55
2022-12-24T04:49:41.156Z,15.38
2022-12-24T04:52:14.594Z,14.93
2022-12-24T04:54:47.675Z,15.65
2022-12-24T04:57:14.299Z,14.90
2022-12-24T04:59:47.546Z,14.95
2022-12-24T05:02:14.419Z,15.40
2022-12-24T05:04:47.620Z,13.88
2022-12-24T05:07:14.263Z,14.73
2022-12-24T05:09:40.882Z,14.43
2022-12-24T05:12:14.636Z,13.98
2022-12-24T05:14:41.377Z,14.98
2022-12-24T05:17:08.031Z,13.57
2022-12-24T05:19:41.532Z,14.10
2022-12-24T05:22:33.641Z,13.40
2022-12-24T05:25:25.820Z,13.68
2022-12-24T05:28:01.577Z,14.77
2022-12-24T05:30:34.632Z,13.13
2022-12-24T05:33:07.571Z,13.85
2022-12-24T05:35:34.224Z,14.70
2022-12-24T05:38:07.638Z,14.23
2022-12-24T05:40:34.253Z,14.68
2022-12-24T05:43:00.872Z,13.95
2022-12-24T05:45:34.605Z,12.85
2022-12-24T05:48:07.626Z,13.00
2022-12-24T05:50:41.609Z,13.02
2022-12-24T05:53:15.552Z,12.80
2022-12-24T05:55:42.146Z,13.48
2022-12-24T05:58:15.542Z,13.68
2022-12-24T06:00:42.694Z,13.55
2022-12-24T06:03:15.630Z,13.05
2022-12-24T06:05:42.284Z,13.02
2022-12-24T06:08:15.561Z,11.60
2022-12-24T06:10:48.574Z,12.10
2022-12-24T06:13:15.163Z,13.40
2022-12-24T06:15:41.790Z,12.25
2022-12-24T06:18:14.603Z,13.15
2022-12-24T06:20:47.587Z,13.73
2022-12-24T06:23:14.192Z,12.27
2022-12-24T06:25:47.628Z,11.63
2022-12-24T06:28:14.807Z,14.07
2022-12-24T06:31:03.832Z,12.80
2022-12-24T06:33:41.632Z,12.63
2022-12-24T06:36:17.885Z,11.90
2022-12-24T06:38:52.585Z,12.30
2022-12-24T06:41:19.658Z,12.85
2022-12-24T06:43:54.562Z,13.15
2022-12-24T06:46:21.987Z,11.77
2022-12-24T06:48:55.627Z,12.80
2022-12-24T06:51:28.570Z,12.70
2022-12-24T06:54:01.537Z,13.05
2022-12-24T06:56:28.143Z,12.77
2022-12-24T06:59:05.245Z,13.27
2022-12-24T07:01:32.331Z,14.13
2022-12-24T07:04:05.588Z,12.68
2022-12-24T07:06:32.459Z,13.60
2022-12-24T07:09:05.548Z,13.02
2022-12-24T07:11:39.090Z,12.75
2022-12-24T07:14:12.636Z,12.30
2022-12-24T07:16:39.450Z,12.50
2022-12-24T07:19:06.171Z,13.02
2022-12-24T07:21:39.626Z,12.85
2022-12-24T07:24:06.456Z,13.02
2022-12-24T07:26:39.619Z,14.68
2022-12-24T07:29:06.254Z,14.50
2022-12-24T07:31:46.667Z,13.85
2022-12-24T07:34:13.365Z,15.57
2022-12-24T07:36:39.964Z,15.25
2022-12-24T07:39:13.602Z,15.38
2022-12-24T07:41:41.974Z,13.68
2022-12-24T07:44:18.620Z,17.65
2022-12-24T07:46:45.537Z,15.93
2022-12-24T07:49:18.605Z,14.00
2022-12-24T07:51:51.572Z,16.58
2022-12-24T07:54:18.214Z,15.60
2022-12-24T07:56:44.823Z,16.10
2022-12-24T07:59:20.614Z,16.65
2022-12-24T08:01:47.469Z,15.90
2022-12-24T08:04:14.365Z,16.60
2022-12-24T08:06:47.559Z,15.60
2022-12-24T08:09:21.540Z,16.73
2022-12-24T08:11:51.999Z,16.17
2022-12-24T08:14:25.561Z,15.45
2022-12-24T08:16:52.230Z,16.20
2022-12-24T08:19:25.627Z,14.48
2022-12-24T08:21:58.564Z,15.63
2022-12-24T08:24:25.233Z,16.38
2022-12-24T08:26:58.640Z,14.57
2022-12-24T08:29:25.319Z,14.70
2022-12-24T08:32:11.716Z,15.70
2022-12-24T08:34:38.458Z,16.48
2022-12-24T08:37:05.069Z,14.65
2022-12-24T08:39:38.643Z,14.07
2022-12-24T08:42:11.652Z,16.52
2022-12-24T08:44:38.345Z,17.08
2022-12-24T08:47:04.989Z,15.05
2022-12-24T08:49:38.561Z,15.65
2022-12-24T08:52:12.547Z,15.10
2022-12-24T08:54:39.187Z,14.80
2022-12-24T08:57:12.569Z,15.10
2022-12-24T08:59:39.180Z,15.88
2022-12-24T09:02:12.724Z,16.27
2022-12-24T09:04:40.142Z,15.45
2022-12-24T09:07:14.598Z,14.73
2022-12-24T09:09:47.650Z,14.75
2022-12-24T09:12:14.408Z,15.55
2022-12-24T09:14:47.579Z,16.88
2022-12-24T09:17:20.556Z,15.43
2022-12-24T09:19:47.490Z,15.98
2022-12-24T09:22:21.611Z,15.48
2022-12-24T09:24:48.390Z,16.23
2022-12-24T09:27:21.556Z,16.35
2022-12-24T09:29:48.237Z,16.58
2022-12-24T09:32:21.542Z,16.20
2022-12-24T09:34:48.274Z,16.55
2022-12-24T09:37:21.539Z,17.27
2022-12-24T09:39:48.166Z,17.42
2022-12-24T09:42:54.568Z,15.93
2022-12-24T09:45:27.149Z,17.20
2022-12-24T09:48:05.614Z,15.48
2022-12-24T09:50:44.072Z,16.85
2022-12-24T09:53:30.537Z,16.83
2022-12-24T09:55:59.993Z,16.75
2022-12-24T09:58:41.538Z,17.25
2022-12-24T10:01:12.950Z,16.20
2022-12-24T10:03:46.763Z,17.35
2022-12-24T10:06:21.037Z,14.75
2022-12-24T10:09:32.570Z,15.57
2022-12-24T10:12:22.815Z,15.32
2022-12-24T10:15:14.685Z,15.27
2022-12-24T10:17:41.224Z,16.77
2022-12-24T10:20:36.555Z,17.35
2022-12-24T10:23:28.595Z,16.02
2022-12-24T10:26:21.628Z,17.20
2022-12-24T10:28:56.675Z,17.42
2022-12-24T10:31:35.604Z,17.17
2022-12-24T10:34:28.604Z,16.77
2022-12-24T10:37:02.618Z,18.52
2022-12-24T10:39:29.245Z,17.20
2022-12-24T10:41:58.997Z,18.20
2022-12-24T10:44:36.625Z,17.50
2022-12-24T10:47:12.627Z,17.52
2022-12-24T10:49:55.565Z,17.75
2022-12-24T10:52:34.614Z,15.93
2022-12-24T10:55:19.074Z,16.77
2022-12-24T10:58:02.578Z,15.13
2022-12-24T11:00:36.937Z,16.52
2022-12-24T11:03:13.124Z,16.52
2022-12-24T11:05:46.543Z,15.90
2022-12-24T11:08:13.232Z,16.17
2022-12-24T11:11:00.540Z,14.60
2022-12-24T11:13:39.975Z,16.73
2022-12-24T11:16:26.491Z,16.45
2022-12-24T11:19:06.612Z,16.08
2022-12-24T11:21:37.354Z,16.90
2022-12-24T11:24:30.600Z,16.10
2022-12-24T11:27:31.056Z,16.65
2022-12-24T11:30:37.614Z,14.65
2022-12-24T11:33:19.216Z,17.05
2022-12-24T11:35:55.548Z,17.90
2022-12-24T11:38:25.309Z,17.10
2022-12-24T11:41:18.590Z,17.92
2022-12-24T11:43:58.594Z,17.63
2022-12-24T11:46:28.342Z,18.65
2022-12-24T11:49:19.585Z,19.13
2022-12-24T11:52:17.547Z,20.35
2022-12-24T11:55:15.917Z,17.77
2022-12-24T11:58:23.570Z,18.75
2022-12-24T12:00:52.349Z,17.67
2022-12-24T12:03:44.607Z,18.88
2022-12-24T12:06:40.529Z,19.60
2022-12-24T12:09:12.979Z,19.77
2022-12-24T12:11:48.616Z,20.38
2022-12-24T12:14:28.279Z,20.10
2022-12-24T12:17:07.647Z,17.75
2022-12-24T12:19:44.808Z,17.93
2022-12-24T12:22:33.602Z,17.23
2022-12-24T12:25:02.994Z,17.85
2022-12-24T12:27:45.614Z,17.75
2022-12-24T12:30:21.502Z,18.10
2022-12-24T12:33:17.598Z,17.67
2022-12-24T12:35:44.634Z,16.52
2022-12-24T12:38:29.633Z,15.15
2022-12-24T12:41:23.813Z,17.52
2022-12-24T12:44:12.618Z,15.85
2022-12-24T12:47:03.926Z,16.40
2022-12-24T12:50:04.616Z,16.08
2022-12-24T12:52:48.365Z,15.40
2022-12-24T12:55:44.584Z,14.35
2022-12-24T12:58:29.525Z,16.13
2022-12-24T13:01:05.843Z,16.23
2022-12-24T13:03:55.572Z,14.18
2022-12-24T13:06:49.261Z,14.40
2022-12-24T13:09:33.603Z,14.70
2022-12-24T13:12:32.472Z,14.20
2022-12-24T13:15:20.879Z,14.57
2022-12-24T13:18:31.074Z,13.85
2022-12-24T13:21:04.536Z,13.93
2022-12-24T13:23:31.211Z,15.20
2022-12-24T13:26:05.529Z,13.85
2022-12-24T13:28:41.614Z,16.10
2022-12-24T13:31:19.727Z,17.42
2022-12-24T13:34:03.533Z,16.27
2022-12-24T13:37:03.798Z,13.02
2022-12-24T13:42:48.146Z,13.15
2022-12-24T13:45:39.655Z,12.45
2022-12-24T13:48:06.211Z,12.38
2022-12-24T13:50:53.623Z,12.75
2022-12-24T13:53:41.898Z,11.25
2022-12-24T13:56:20.611Z,12.38
2022-12-24T13:59:01.633Z,11.75
2022-12-24T14:01:44.676Z,13.30
2022-12-24T14:04:31.405Z,12.13
2022-12-24T14:07:08.528Z,13.90
2022-12-24T14:09:36.377Z,13.40
2022-12-24T14:12:16.297Z,13.40
2022-12-24T14:14:43.580Z,12.18
2022-12-24T14:17:26.580Z,10.82
2022-12-24T14:19:59.157Z,10.95
2022-12-24T14:22:42.586Z,11.48
2022-12-24T14:25:17.104Z,10.60
2022-12-24T14:28:14.563Z,10.60
2022-12-24T14:30:41.214Z,11.18
2022-12-24T14:33:42.655Z,11.98
2022-12-24T14:36:22.026Z,11.20
2022-12-24T14:38:56.625Z,10.17
2022-12-24T14:41:41.026Z,10.73
2022-12-24T14:44:37.539Z,11.98
2022-12-24T14:47:30.785Z,9.35
2022-12-24T14:50:41.601Z,10.85
2022-12-24T14:53:33.632Z,13.20
2022-12-24T14:56:20.627Z,12.82
2022-12-24T14:58:48.138Z,12.13
2022-12-24T15:01:40.621Z,11.35
2022-12-24T15:04:10.076Z,10.43
2022-12-24T15:06:55.601Z,10.35
2022-12-24T15:09:31.645Z,12.10
2022-12-24T15:12:09.592Z,11.18
2022-12-24T15:14:43.169Z,11.18
2022-12-24T15:17:19.535Z,11.63
2022-12-24T15:19:50.347Z,14.60
2022-12-24T15:22:36.592Z,12.07
2022-12-24T15:25:09.582Z,10.73
2022-12-24T15:27:45.617Z,15.02
2022-12-24T15:30:16.509Z,12.23
2022-12-24T15:32:56.615Z,12.05
2022-12-24T15:35:40.584Z,14.40
2022-12-24T15:38:29.507Z,12.50
2022-12-24T15:41:03.566Z,14.40
2022-12-24T15:43:31.569Z,15.77
2022-12-24T15:46:05.652Z,18.75
2022-12-24T15:48:32.768Z,13.65
2022-12-24T15:51:09.565Z,15.95
2022-12-24T15:53:47.530Z,13.63
2022-12-24T15:56:35.527Z,14.75
2022-12-24T15:59:34.547Z,13.88
2022-12-24T16:02:38.946Z,13.43
2022-12-24T16:05:35.581Z,13.15
2022-12-24T16:08:27.603Z,12.90
2022-12-24T16:11:16.630Z,12.88
2022-12-24T16:13:55.577Z,14.63
2022-12-24T16:16:32.737Z,15.13
2022-12-24T16:19:07.580Z,14.77
2022-12-24T16:21:36.020Z,14.20
2022-12-24T16:24:14.592Z,13.30
2022-12-24T16:26:41.461Z,16.27
2022-12-24T16:29:16.551Z,17.05
2022-12-24T16:32:12.519Z,17.65
2022-12-24T16:34:45.593Z,16.55
2022-12-24T16:37:12.296Z,13.80
2022-12-24T16:39:45.550Z,14.35
2022-12-24T16:42:30.757Z,14.45
2022-12-24T16:45:03.776Z,13.13
2022-12-24T16:47:38.632Z,14.35
2022-12-24T16:50:20.556Z,14.27
2022-12-24T16:52:53.628Z,12.18
2022-12-24T16:55:26.592Z,15.15
2022-12-24T16:57:53.205Z,11.90
2022-12-24T17:00:22.333Z,18.63
2022-12-24T17:02:56.800Z,9.98
2022-12-24T17:05:30.631Z,11.70
2022-12-24T17:08:06.605Z,12.57
2022-12-24T17:10:34.183Z,9.80
2022-12-24T17:13:07.609Z,9.10
2022-12-24T17:15:34.383Z,11.32
2022-12-24T17:18:01.016Z,11.95
2022-12-24T17:20:34.542Z,16.70
2022-12-24T17:23:07.646Z,13.55
2022-12-24T17:25:36.105Z,11.43
2022-12-24T17:28:02.751Z,13.02
2022-12-24T17:30:35.555Z,13.52
2022-12-24T17:33:02.130Z,13.35
2022-12-24T17:35:35.586Z,12.60
2022-12-24T17:38:02.220Z,13.25
2022-12-24T17:40:36.642Z,14.15
2022-12-24T17:43:09.604Z,18.17
2022-12-24T17:45:41.078Z,14.27
2022-12-24T17:48:07.862Z,14.65
2022-12-24T17:50:46.636Z,15.30
2022-12-24T17:53:19.955Z,15.48
2022-12-24T17:55:53.612Z,14.65
2022-12-24T17:58:26.531Z,19.63
2022-12-24T18:01:01.590Z,15.73
2022-12-24T18:03:28.824Z,17.17
2022-12-24T18:06:01.598Z,21.02
2022-12-24T18:08:28.742Z,18.80
2022-12-24T18:10:55.317Z,20.52
2022-12-24T18:13:29.611Z,26.17
2022-12-24T18:15:56.254Z,20.40
2022-12-24T18:18:22.866Z,23.83
2022-12-24T18:20:56.609Z,19.05
2022-12-24T18:23:23.213Z,20.45
2022-12-24T18:25:56.521Z,30.60
2022-12-24T18:28:23.156Z,23.83
2022-12-24T18:31:07.585Z,19.83
2022-12-24T18:33:35.714Z,17.95
2022-12-24T18:36:08.566Z,23.00
2022-12-24T18:38:35.862Z,17.88
2022-12-24T18:41:17.611Z,19.35
2022-12-24T18:43:50.623Z,20.35
2022-12-24T18:46:30.640Z,23.33
2022-12-24T18:49:06.602Z,22.38
2022-12-24T18:51:41.548Z,21.48
2022-12-24T18:54:21.595Z,21.48
2022-12-24T18:56:52.908Z,21.38
2022-12-24T18:59:26.514Z,22.00
2022-12-24T19:01:59.689Z,22.60
2022-12-24T19:04:26.473Z,21.55
2022-12-24T19:06:59.620Z,23.55
2022-12-24T19:09:26.218Z,23.00
2022-12-24T19:11:52.834Z,22.08
2022-12-24T19:14:28.595Z,19.52
2022-12-24T19:16:55.270Z,22.55
2022-12-24T19:19:24.025Z,21.38
2022-12-24T19:21:58.634Z,19.92
2022-12-24T19:24:25.255Z,20.33
2022-12-24T19:26:51.849Z,20.50
2022-12-24T19:29:26.579Z,20.00
2022-12-24T19:31:59.658Z,17.13
2022-12-24T19:34:26.392Z,16.88
2022-12-24T19:36:59.619Z,18.17
2022-12-24T19:39:31.690Z,16.90
2022-12-24T19:42:05.609Z,19.70
2022-12-24T19:44:32.219Z,19.38
2022-12-24T19:47:05.592Z,18.27
2022-12-24T19:49:38.594Z,15.05
2022-12-24T19:52:11.529Z,17.48
2022-12-24T19:54:38.113Z,17.23
2022-12-24T19:57:11.612Z,17.42
2022-12-24T19:59:38.260Z,19.80
2022-12-24T20:02:11.781Z,17.60
2022-12-24T20:04:38.503Z,19.15
2022-12-24T20:07:05.137Z,18.40
2022-12-24T20:09:40.542Z,17.40
2022-12-24T20:12:07.459Z,17.20
2022-12-24T20:14:34.267Z,16.63
2022-12-24T20:17:07.637Z,16.10
2022-12-24T20:19:34.325Z,15.60
2022-12-24T20:22:00.901Z,13.82
2022-12-24T20:24:34.575Z,14.27
2022-12-24T20:27:01.255Z,14.38
2022-12-24T20:29:28.136Z,15.10
2022-12-24T20:32:01.592Z,14.85
2022-12-24T20:34:28.257Z,15.63
2022-12-24T20:37:01.594Z,15.32
2022-12-24T20:39:34.543Z,15.20
2022-12-24T20:42:02.547Z,14.88
2022-12-24T20:44:35.587Z,13.43
2022-12-24T20:47:02.204Z,13.57
2022-12-24T20:49:28.957Z,12.73
2022-12-24T20:52:02.534Z,12.93
2022-12-24T20:54:35.635Z,12.45
2022-12-24T20:57:02.276Z,12.90
2022-12-24T20:59:35.550Z,15.57
2022-12-24T21:02:02.422Z,12.52
2022-12-24T21:04:29.161Z,13.95
2022-12-24T21:07:02.646Z,13.88
2022-12-24T21:09:29.363Z,13.57
2022-12-24T21:12:02.689Z,12.50
2022-12-24T21:14:42.729Z,12.25
2022-12-24T21:17:16.236Z,12.82
2022-12-24T21:19:42.947Z,11.52
2022-12-24T21:22:16.589Z,12.45
2022-12-24T21:24:43.183Z,15.48
2022-12-24T21:27:16.573Z,12.75
2022-12-24T21:29:49.572Z,11.77
2022-12-24T21:32:22.566Z,12.07
2022-12-24T21:34:55.562Z,13.10
2022-12-24T21:37:22.226Z,13.05
2022-12-24T21:39:56.574Z,15.80
2022-12-24T21:42:23.229Z,13.73
2022-12-24T21:44:56.581Z,13.93
2022-12-24T21:47:23.192Z,11.18
2022-12-24T21:50:14.620Z,10.70
2022-12-24T21:52:49.025Z,11.15
2022-12-24T21:55:22.535Z,9.77
2022-12-24T21:57:55.053Z,10.35
2022-12-24T22:00:28.527Z,9.68
2022-12-24T22:03:04.788Z,11.15
2022-12-24T22:05:33.337Z,10.63
2022-12-24T22:08:25.495Z,10.68
2022-12-24T22:11:37.516Z,10.13
2022-12-24T22:14:04.860Z,9.82
2022-12-24T22:16:38.588Z,10.23
2022-12-24T22:19:11.584Z,10.10
2022-12-24T22:21:44.534Z,9.32
2022-12-24T22:24:11.127Z,8.73
2022-12-24T22:26:44.581Z,9.05
2022-12-24T22:29:12.183Z,9.32
2022-12-24T22:31:40.371Z,8.73
2022-12-24T22:34:13.547Z,8.30
2022-12-24T22:36:40.397Z,8.45
2022-12-24T22:39:13.611Z,9.20
2022-12-24T22:41:46.518Z,8.75
2022-12-24T22:44:19.535Z,8.35
2022-12-24T22:46:46.205Z,9.20
2022-12-24T22:49:12.832Z,8.75
2022-12-24T22:51:46.585Z,7.93
2022-12-24T22:54:19.547Z,8.30
2022-12-24T22:56:46.247Z,9.60
2022-12-24T22:59:20.598Z,8.30
2022-12-24T23:01:47.950Z,8.35
2022-12-24T23:04:15.191Z,8.88
2022-12-24T23:06:48.598Z,8.98
2022-12-24T23:09:16.553Z,8.32
2022-12-24T23:11:44.558Z,9.30
2022-12-24T23:14:44.694Z,8.85
2022-12-24T23:17:12.020Z,9.50
2022-12-24T23:19:45.581Z,9.10
2022-12-24T23:22:12.412Z,9.02
2022-12-24T23:24:39.325Z,8.27
2022-12-24T23:27:12.571Z,8.32
2022-12-24T23:29:39.303Z,8.75
2022-12-24T23:32:12.706Z,9.07
2022-12-24T23:34:45.589Z,8.63
2022-12-24T23:37:12.207Z,9.48
2022-12-24T23:39:45.608Z,8.52
2022-12-24T23:42:12.251Z,9.27
2022-12-24T23:44:38.903Z,9.48
2022-12-24T23:47:12.531Z,8.85
2022-12-24T23:49:45.603Z,8.70
2022-12-24T23:52:18.601Z,8.63
2022-12-24T23:54:58.601Z,8.85
2022-12-24T23:57:31.527Z,9.43
